Time;durP1;ratioP1;P1;durP2;ratioP2;P2;SDS_P1;SDS_P2;PMS_P1;PMS_P2;Temp;Humidity;BMP_temperature;BMP_pressure;BME280_temperature;BME280_humidity;BME280_pressure;Samples;Min_cycle;Max_cycle;Signal;HPM_P1;HPM_P2
2023/08/31 00:01:03;;;;;;;31.60;19.70;;;;;;;13.15;100.00;99919.25;4990624;28;20800;-77
2023/08/31 00:03:29;;;;;;;27.73;19.52;;;;;;;13.10;100.00;99922.53;4990699;28;20105;-76
2023/08/31 00:05:55;;;;;;;32.17;19.98;;;;;;;13.17;100.00;99937.81;5006962;28;20037;-77
2023/08/31 00:08:22;;;;;;;31.40;22.05;;;;;;;13.18;100.00;99936.78;4974675;28;20515;-77
2023/08/31 00:10:55;;;;;;;34.80;23.30;;;;;;;13.08;100.00;99927.25;5008025;28;20038;-76
2023/08/31 00:13:20;;;;;;;36.83;22.17;;;;;;;13.17;100.00;99937.81;4990141;28;20040;-77
2023/08/31 00:15:46;;;;;;;36.10;23.80;;;;;;;13.10;100.00;99940.47;5018642;22;20508;-90
2023/08/31 00:18:12;;;;;;;41.08;25.33;;;;;;;13.01;100.00;99926.41;5012887;28;20557;-91
2023/08/31 00:20:38;;;;;;;;;;;;;;;13.20;100.00;99945.47;4997333;28;20030;-89
2023/08/31 00:23:03;;;;;;;;;;;;;;;13.20;100.00;99940.09;4995416;28;20140;-90
2023/08/31 00:25:28;;;;;;;38.93;24.27;;;;;;;13.15;100.00;99939.88;4997555;28;19990;-91
2023/08/31 00:27:54;;;;;;;39.97;25.17;;;;;;;13.13;100.00;99937.38;4996578;28;20033;-91
2023/08/31 00:30:20;;;;;;;45.15;27.27;;;;;;;13.15;100.00;99935.34;4996903;28;20029;-90
2023/08/31 00:32:47;;;;;;;44.88;27.40;;;;;;;13.14;100.00;99933.69;4996932;28;20040;-90
2023/08/31 00:35:12;;;;;;;46.50;27.88;;;;;;;13.24;100.00;99936.00;5012884;28;20033;-91
2023/08/31 00:37:38;;;;;;;49.03;28.85;;;;;;;13.27;100.00;99935.59;4997210;28;20395;-91
2023/08/31 00:40:04;;;;;;;43.85;28.23;;;;;;;13.22;100.00;99940.72;4988654;28;20041;-91
2023/08/31 00:42:30;;;;;;;44.92;27.50;;;;;;;13.29;100.00;99941.63;5013332;28;20069;-90
2023/08/31 00:44:55;;;;;;;45.42;27.83;;;;;;;13.27;100.00;99940.94;5005178;28;20061;-91
2023/08/31 00:47:21;;;;;;;51.00;31.63;;;;;;;13.24;100.00;99926.09;5013571;28;20037;-90
2023/08/31 00:49:47;;;;;;;45.37;29.07;;;;;;;13.32;100.00;99943.88;4993653;28;20550;-91
2023/08/31 00:52:13;;;;;;;48.88;28.58;;;;;;;13.36;100.00;99939.78;5013297;28;20030;-91
2023/08/31 00:54:39;;;;;;;48.50;29.57;;;;;;;13.25;100.00;99932.28;4995032;28;20084;-91
2023/08/31 00:57:04;;;;;;;52.75;32.60;;;;;;;13.30;100.00;99948.66;5014001;28;20075;-91
2023/08/31 00:59:29;;;;;;;53.77;30.90;;;;;;;13.32;100.00;99949.25;4994321;28;20305;-90
2023/08/31 01:02:20;;;;;;;51.50;31.25;;;;;;;13.38;100.00;99953.81;5027367;28;20032;-91
2023/08/31 01:05:15;;;;;;;42.95;26.90;;;;;;;13.34;100.00;99932.97;4992794;28;20083;-91
2023/08/31 01:07:52;;;;;;;44.33;26.88;;;;;;;13.35;100.00;99953.41;5013452;28;20041;-90
2023/08/31 01:10:23;;;;;;;43.55;25.85;;;;;;;13.24;100.00;99952.09;5013139;28;20048;-91
2023/08/31 01:13:11;;;;;;;37.85;22.63;;;;;;;13.28;100.00;99956.88;5012628;28;20033;-91
2023/08/31 01:15:38;;;;;;;40.92;23.92;;;;;;;13.36;100.00;99955.88;4997058;28;20112;-91
2023/08/31 01:18:06;;;;;;;38.85;25.35;;;;;;;13.21;100.00;99947.94;4996458;28;20025;-91
2023/08/31 01:20:44;;;;;;;38.80;22.92;;;;;;;13.37;100.00;99951.34;4993150;28;20033;-90
2023/08/31 01:23:15;;;;;;;42.28;23.70;;;;;;;13.26;100.00;99944.66;4996257;28;20090;-90
2023/08/31 01:25:43;;;;;;;39.03;23.48;;;;;;;13.31;100.00;99947.59;4995275;28;20030;-90
2023/08/31 01:28:08;;;;;;;;;;;;;;;13.36;100.00;99955.88;5014332;28;20037;-91
2023/08/31 01:30:34;;;;;;;36.08;20.95;;;;;;;13.19;100.00;99933.91;5014163;28;19913;-91
2023/08/31 01:33:00;;;;;;;35.15;21.23;;;;;;;13.18;100.00;99942.16;5013104;28;20024;-90
2023/08/31 01:35:26;;;;;;;;;;;;;;;13.20;100.00;99951.63;4997317;28;20042;-90
2023/08/31 01:37:53;;;;;;;;;;;;;;;13.17;100.00;99956.59;5014372;28;19913;-90
2023/08/31 01:40:27;;;;;;;33.60;21.00;;;;;;;13.09;100.00;99955.72;4997379;28;19909;-90
2023/08/31 01:42:54;;;;;;;37.00;22.42;;;;;;;13.07;100.00;99949.72;4995936;28;20041;-91
2023/08/31 01:45:22;;;;;;;36.40;22.33;;;;;;;13.11;100.00;99963.56;4997164;28;20128;-91
2023/08/31 01:47:48;;;;;;;33.17;19.60;;;;;;;13.05;100.00;99967.03;4996584;28;20033;-91
2023/08/31 01:50:13;;;;;;;33.28;20.75;;;;;;;13.20;100.00;99969.56;5009015;28;20033;-91
2023/08/31 01:52:39;;;;;;;32.33;20.25;;;;;;;13.23;100.00;99969.19;4988365;28;20839;-90
2023/08/31 01:55:06;;;;;;;35.15;20.17;;;;;;;13.21;100.00;99973.94;4996406;28;20104;-91
2023/08/31 01:57:32;;;;;;;35.10;21.73;;;;;;;13.25;100.00;99967.13;5002132;28;20026;-91
2023/08/31 02:00:17;;;;;;;32.88;20.63;;;;;;;13.23;100.00;99971.88;4998677;28;20033;-91
2023/08/31 02:02:42;;;;;;;36.13;22.42;;;;;;;13.12;100.00;99969.75;5012908;28;20061;-91
2023/08/31 02:05:08;;;;;;;34.57;21.47;;;;;;;13.17;100.00;99964.63;4994687;28;20448;-91
2023/08/31 02:07:33;;;;;;;39.65;24.35;;;;;;;13.10;100.00;99970.75;5007259;28;20029;-92
2023/08/31 02:10:00;;;;;;;39.05;22.27;;;;;;;13.03;100.00;99964.53;5013421;28;20534;-92
2023/08/31 02:12:26;;;;;;;37.67;21.23;;;;;;;12.98;100.00;99969.69;5013281;28;20021;-91
2023/08/31 02:14:51;;;;;;;38.43;22.27;;;;;;;13.01;100.00;99963.91;5008681;28;20057;-91
2023/08/31 02:17:17;;;;;;;36.63;21.20;;;;;;;12.94;100.00;99963.03;5012551;28;20511;-91
2023/08/31 02:19:42;;;;;;;39.70;22.27;;;;;;;12.99;100.00;99971.31;4997411;28;20037;-91
2023/08/31 02:22:08;;;;;;;43.00;23.30;;;;;;;13.01;100.00;99963.91;4994182;28;20022;-92
2023/08/31 02:24:34;;;;;;;43.13;24.33;;;;;;;12.94;100.00;99957.69;5003846;28;20287;-92
2023/08/31 02:26:59;;;;;;;43.47;25.23;;;;;;;12.91;100.00;99965.31;4997109;28;20045;-92
2023/08/31 02:29:25;;;;;;;44.67;24.52;;;;;;;13.01;100.00;99974.63;5013608;28;20025;-91
2023/08/31 02:31:51;;;;;;;40.70;24.30;;;;;;;12.95;100.00;99962.03;5012885;28;20040;-91
2023/08/31 02:34:16;;;;;;;44.40;24.83;;;;;;;12.93;100.00;99976.66;5002549;28;20596;-92
2023/08/31 02:36:41;;;;;;;51.43;28.03;;;;;;;12.89;100.00;99970.84;4994772;28;20051;-91
2023/08/31 02:39:09;;;;;;;42.25;24.20;;;;;;;12.85;100.00;99972.25;4997046;28;20444;-91
2023/08/31 02:41:35;;;;;;;42.88;24.67;;;;;;;12.80;100.00;99977.38;5003549;28;20384;-91
2023/08/31 02:44:03;;;;;;;50.83;26.00;;;;;;;12.73;100.00;99977.34;5026231;28;20052;-91
2023/08/31 02:46:29;;;;;;;41.90;24.90;;;;;;;12.83;100.00;99983.19;4996273;28;20029;-90
2023/08/31 02:48:54;;;;;;;47.37;27.13;;;;;;;12.70;100.00;99975.06;4996434;28;20380;-91
2023/08/31 02:51:19;;;;;;;43.83;26.67;;;;;;;12.81;100.00;99987.09;5007102;28;20148;-90
2023/08/31 02:53:45;;;;;;;46.60;26.20;;;;;;;12.78;100.00;99974.91;5015891;28;20040;-91
2023/08/31 02:56:10;;;;;;;43.58;24.20;;;;;;;12.68;100.00;99964.53;5003659;28;20041;-90
2023/08/31 02:58:36;;;;;;;39.87;22.73;;;;;;;12.65;100.00;99970.28;5015755;28;20037;-92
2023/08/31 03:01:12;;;;;;;42.80;25.07;;;;;;;12.63;100.00;99977.69;5017341;28;20079;-92
2023/08/31 03:03:42;;;;;;;42.78;23.88;;;;;;;12.71;100.00;99971.34;5009491;28;20037;-92
2023/08/31 03:06:09;;;;;;;39.92;23.73;;;;;;;12.75;100.00;99985.19;5014275;28;20037;-91
2023/08/31 03:08:38;;;;;;;45.85;24.25;;;;;;;12.58;100.00;99979.28;5010054;28;20038;-91
2023/08/31 03:11:05;;;;;;;40.78;21.45;;;;;;;12.64;100.00;99989.22;4999385;28;20123;-92
2023/08/31 03:13:33;;;;;;;35.58;20.75;;;;;;;12.53;100.00;99969.16;5004967;28;20013;-91
2023/08/31 03:15:59;;;;;;;35.45;20.90;;;;;;;12.58;100.00;99979.28;5003984;28;20047;-92
2023/08/31 03:18:26;;;;;;;36.90;21.38;;;;;;;12.56;100.00;99968.75;5018146;28;20503;-92
2023/08/31 03:20:52;;;;;;;35.45;21.63;;;;;;;12.51;100.00;99963.19;5002549;28;20017;-92
2023/08/31 03:23:17;;;;;;;31.83;19.57;;;;;;;12.54;100.00;99983.38;5018468;28;20116;-91
2023/08/31 03:25:43;;;;;;;33.60;19.23;;;;;;;12.47;100.00;99959.22;5018737;28;20048;-91
2023/08/31 03:28:11;;;;;;;34.47;20.10;;;;;;;12.55;100.00;99967.13;5015399;28;20033;-91
2023/08/31 03:30:36;;;;;;;32.88;19.15;;;;;;;12.54;100.00;99962.78;5002407;28;20116;-91
2023/08/31 03:33:02;;;;;;;30.20;18.50;;;;;;;12.52;100.00;99964.00;5011136;28;20032;-91
2023/08/31 03:35:28;;;;;;;38.25;20.38;;;;;;;12.36;100.00;99959.75;5016439;28;20044;-92
2023/08/31 03:37:55;;;;;;;35.67;18.33;;;;;;;12.44;100.00;99968.47;5017469;28;20267;-91
2023/08/31 03:40:21;;;;;;;35.63;18.42;;;;;;;12.46;100.00;99970.97;5006218;28;20025;-90
2023/08/31 03:42:46;;;;;;;29.58;16.73;;;;;;;12.30;100.00;99960.53;5010715;28;20038;-92
2023/08/31 03:45:12;;;;;;;34.30;19.73;;;;;;;12.40;100.00;99961.84;5009763;28;20049;-92
2023/08/31 03:47:37;;;;;;;36.87;18.67;;;;;;;12.45;100.00;99969.28;4999949;28;20036;-91
2023/08/31 03:50:04;;;;;;;25.98;16.05;;;;;;;12.41;100.00;99968.03;5012832;28;20029;-91
2023/08/31 03:52:42;;;;;;;29.48;16.45;;;;;;;12.35;100.00;99963.44;5013572;28;20091;-90
2023/08/31 03:55:10;;;;;;;31.17;16.40;;;;;;;12.50;100.00;99982.91;5001052;28;20037;-92
2023/08/31 03:57:35;;;;;;;28.17;15.73;;;;;;;12.53;100.00;99993.25;5006420;28;20025;-91
2023/08/31 04:00:12;;;;;;;30.15;16.30;;;;;;;12.49;100.00;99986.63;5005850;28;20045;-91
2023/08/31 04:02:43;;;;;;;25.30;17.10;;;;;;;12.46;100.00;99977.13;5019806;28;20029;-92
2023/08/31 04:05:09;;;;;;;26.08;15.82;;;;;;;12.45;100.00;99986.22;5000938;28;20060;-90
2023/08/31 04:07:35;;;;;;;26.20;15.47;;;;;;;12.33;100.00;99978.88;5016834;28;20035;-90
2023/08/31 04:10:00;;;;;;;26.90;14.82;;;;;;;12.39;100.00;99976.25;5003736;28;20044;-91
2023/08/31 04:12:26;;;;;;;28.37;15.20;;;;;;;12.56;100.00;100000.06;5019186;28;20033;-91
2023/08/31 04:14:51;;;;;;;34.67;18.43;;;;;;;12.58;100.00;100000.72;5000517;28;20121;-91
2023/08/31 04:17:16;;;;;;;27.70;16.00;;;;;;;12.46;100.00;99987.84;5020120;28;20047;-91
2023/08/31 04:19:42;;;;;;;25.73;14.33;;;;;;;12.56;100.00;100008.94;5005715;28;20037;-91
2023/08/31 04:22:07;;;;;;;30.17;15.53;;;;;;;12.47;100.00;99996.69;5014269;28;20060;-92
2023/08/31 04:24:33;;;;;;;31.37;15.23;;;;;;;12.39;100.00;100002.22;5020656;28;20029;-91
2023/08/31 04:26:58;;;;;;;28.70;15.82;;;;;;;12.40;100.00;100002.00;5022595;28;20033;-91
2023/08/31 04:29:24;;;;;;;34.22;15.93;;;;;;;12.48;100.00;100006.41;5011208;28;20025;-91
2023/08/31 04:31:50;;;;;;;22.67;14.25;;;;;;;12.49;100.00;100001.88;5017928;28;20046;-89
2023/08/31 04:34:15;;;;;;;32.63;15.97;;;;;;;12.51;100.00;100006.00;5028379;28;20044;-91
2023/08/31 04:36:41;;;;;;;23.77;14.30;;;;;;;12.61;100.00;100005.69;5002127;28;20049;-90
2023/08/31 04:39:07;;;;;;;25.67;14.57;;;;;;;12.49;100.00;99997.34;5002559;28;20033;-91
2023/08/31 04:41:33;;;;;;;;;;;;;;;12.43;100.00;99998.94;5003080;28;20061;-92
2023/08/31 04:43:58;;;;;;;22.17;11.88;;;;;;;12.46;100.00;99982.50;5002480;28;19933;-92
2023/08/31 04:46:23;;;;;;;21.60;13.00;;;;;;;12.45;100.00;99996.91;5024866;28;20136;-91
2023/08/31 04:48:49;;;;;;;22.00;12.93;;;;;;;12.45;100.00;99982.69;5019102;28;20145;-90
2023/08/31 04:51:28;;;;;;;22.20;13.07;;;;;;;12.36;100.00;99976.66;5010041;28;20248;-88
2023/08/31 04:53:54;;;;;;;22.00;12.60;;;;;;;12.28;100.00;99989.34;5004671;28;20029;-92
2023/08/31 04:56:19;;;;;;;18.17;11.03;;;;;;;12.33;100.00;99993.06;5015664;28;20060;-90
2023/08/31 04:58:44;;;;;;;26.33;12.43;;;;;;;12.28;100.00;99992.00;5014780;28;20037;-92
2023/08/31 05:01:10;;;;;;;17.47;11.83;;;;;;;12.26;100.00;100002.91;5001688;28;20042;-91
2023/08/31 05:03:35;;;;;;;17.80;11.00;;;;;;;12.16;100.00;99987.16;5014411;28;20087;-90
2023/08/31 05:06:03;;;;;;;18.27;11.20;;;;;;;12.16;100.00;99995.19;5001271;28;20030;-91
2023/08/31 05:08:30;;;;;;;16.88;10.73;;;;;;;12.12;100.00;100004.63;5010432;28;20287;-90
2023/08/31 05:10:55;;;;;;;16.00;9.48;;;;;;;12.09;100.00;99998.84;5021929;28;20072;-91
2023/08/31 05:13:20;;;;;;;15.97;9.67;;;;;;;12.19;100.00;100002.81;5008767;28;20109;-91
2023/08/31 05:15:46;;;;;;;20.20;9.57;;;;;;;12.25;100.00;100006.59;4999611;28;20053;-88
2023/08/31 05:18:11;;;;;;;13.63;9.50;;;;;;;12.12;100.00;100007.28;5013026;28;20044;-91
2023/08/31 05:20:36;;;;;;;15.33;8.77;;;;;;;12.12;100.00;100004.63;4999480;28;20028;-91
2023/08/31 05:23:02;;;;;;;13.23;9.00;;;;;;;12.03;100.00;100003.06;4996596;28;20091;-91
2023/08/31 05:25:28;;;;;;;14.13;8.80;;;;;;;12.06;100.00;100010.75;5013138;28;20060;-91
2023/08/31 05:27:53;;;;;;;14.53;8.67;;;;;;;12.00;100.00;100008.81;5005435;28;20033;-91
2023/08/31 05:30:19;;;;;;;15.77;9.40;;;;;;;12.09;100.00;100023.72;5012903;28;20072;-90
2023/08/31 05:32:44;;;;;;;21.57;10.47;;;;;;;11.97;100.00;100022.59;4997584;28;20344;-90
2023/08/31 05:35:16;;;;;;;18.83;8.07;;;;;;;12.02;100.00;100036.22;4998498;28;20506;-90
2023/08/31 05:37:50;;;;;;;17.65;8.13;;;;;;;11.98;100.00;100026.91;5014167;28;20120;-89
2023/08/31 05:40:25;;;;;;;12.43;9.07;;;;;;;11.90;100.00;100030.53;4997724;28;20037;-92
2023/08/31 05:42:53;;;;;;;16.13;9.65;;;;;;;11.74;100.00;100018.16;5013429;28;20136;-91
2023/08/31 05:45:21;;;;;;;14.43;8.57;;;;;;;11.97;100.00;100028.75;5013202;28;20036;-88
2023/08/31 05:47:46;;;;;;;15.60;9.40;;;;;;;12.03;100.00;100052.09;5014237;28;20132;-92
2023/08/31 05:50:12;;;;;;;13.17;8.57;;;;;;;11.79;100.00;100037.16;5013716;28;20068;-92
2023/08/31 05:52:38;;;;;;;18.58;9.82;;;;;;;11.78;100.00;100038.19;5014343;28;20014;-91
2023/08/31 05:55:03;;;;;;;18.67;9.32;;;;;;;11.86;100.00;100049.78;5003528;28;20468;-91
2023/08/31 05:57:29;;;;;;;14.60;9.23;;;;;;;11.98;100.00;100056.31;5009401;28;20192;-90
2023/08/31 05:59:54;;;;;;;12.30;8.40;;;;;;;12.39;100.00;100066.44;5010149;23;20577;-75
2023/08/31 06:02:19;;;;;;;12.17;8.13;;;;;;;12.43;100.00;100051.63;5020748;28;20068;-76
2023/08/31 06:04:45;;;;;;;10.50;7.20;;;;;;;12.28;100.00;100049.03;5014299;28;20037;-76
2023/08/31 06:07:10;;;;;;;9.17;6.47;;;;;;;12.52;100.00;100057.69;5029463;28;20056;-77
2023/08/31 06:09:35;;;;;;;12.23;6.33;;;;;;;13.98;100.00;100071.22;5018888;28;20113;-77
2023/08/31 06:12:01;;;;;;;8.53;5.13;;;;;;;14.12;100.00;100030.00;5009672;28;20523;-77
2023/08/31 06:14:26;;;;;;;9.40;5.30;;;;;;;14.74;100.00;100007.34;5014649;28;20522;-76
2023/08/31 06:16:52;;;;;;;6.93;4.30;;;;;;;14.96;100.00;99980.22;5018560;28;20488;-77
2023/08/31 06:19:17;;;;;;;8.07;4.30;;;;;;;14.85;100.00;99937.91;5029024;28;20387;-77
2023/08/31 06:21:43;;;;;;;7.57;4.87;;;;;;;14.52;100.00;99928.00;4994159;28;20029;-77
2023/08/31 06:24:12;;;;;;;6.80;3.93;;;;;;;14.20;100.00;99933.16;5028679;28;20320;-77
2023/08/31 06:26:38;;;;;;;14.68;4.25;;;;;;;14.69;100.00;99956.09;5024377;28;20643;-78
2023/08/31 06:29:03;;;;;;;7.82;3.80;;;;;;;14.47;100.00;99922.41;5017959;28;20022;-77
2023/08/31 06:31:29;;;;;;;6.77;2.70;;;;;;;14.42;100.00;99906.09;5029804;22;20072;-87
2023/08/31 06:33:55;;;;;;;12.32;3.92;;;;;;;14.45;100.00;99922.63;5033768;28;20029;-86
2023/08/31 06:36:20;;;;;;;11.37;5.30;;;;;;;14.09;100.00;99907.78;5018608;28;20131;-85
2023/08/31 06:38:45;;;;;;;6.27;3.43;;;;;;;14.11;100.00;99929.03;5031750;28;20284;-85
2023/08/31 06:41:11;;;;;;;8.80;3.50;;;;;;;14.32;100.00;99877.81;5023756;28;20176;-85
2023/08/31 06:43:36;;;;;;;7.47;3.30;;;;;;;14.69;100.00;99931.91;4998703;28;20018;-85
2023/08/31 06:46:02;;;;;;;5.53;2.72;;;;;;;15.28;100.00;99867.44;5014952;28;20037;-85
2023/08/31 06:48:27;;;;;;;8.13;2.77;;;;;;;15.61;100.00;99851.91;5016020;28;20053;-87
2023/08/31 06:50:52;;;;;;;7.13;2.27;;;;;;;16.72;100.00;99813.69;5015525;28;20568;-87
2023/08/31 06:53:18;;;;;;;9.67;2.90;;;;;;;16.45;100.00;99625.38;5014931;28;20778;-86
2023/08/31 06:55:44;;;;;;;4.70;2.40;;;;;;;16.26;100.00;99600.38;5014846;28;20352;-85
2023/08/31 06:58:09;;;;;;;7.85;2.60;;;;;;;15.47;100.00;99581.38;5031515;28;20056;-87
2023/08/31 07:00:34;;;;;;;4.57;1.80;;;;;;;15.82;100.00;99665.06;5031433;28;20044;-86
2023/08/31 07:03:00;;;;;;;5.70;1.80;;;;;;;16.11;100.00;99563.06;5030876;28;20484;-86
2023/08/31 07:05:26;;;;;;;7.50;1.97;;;;;;;15.57;100.00;99595.16;5029684;28;20393;-85
2023/08/31 07:07:54;;;;;;;2.97;1.67;;;;;;;15.61;100.00;99564.03;5019667;28;20075;-86
2023/08/31 07:10:21;;;;;;;4.88;2.30;;;;;;;15.66;100.00;99578.69;5028707;28;20028;-86
2023/08/31 07:12:46;;;;;;;4.47;1.63;;;;;;;15.93;100.00;99600.78;5023387;28;20030;-86
2023/08/31 07:15:12;;;;;;;1.70;1.60;;;;;;;16.24;100.00;99527.06;5032110;28;20017;-85
2023/08/31 07:17:37;;;;;;;4.47;1.50;;;;;;;17.13;100.00;99462.38;5014392;28;20038;-87
2023/08/31 07:20:05;;;;;;;4.67;2.03;;;;;;;17.41;100.00;99326.72;5009910;28;20041;-87
2023/08/31 07:22:32;;;;;;;5.68;1.40;;;;;;;17.89;100.00;99332.72;5023272;28;20029;-86
2023/08/31 07:24:58;;;;;;;3.85;1.58;;;;;;;17.25;100.00;99176.47;5022772;28;20438;-87
2023/08/31 07:27:23;;;;;;;3.10;1.53;;;;;;;16.91;100.00;99111.75;5031307;28;20037;-85
2023/08/31 07:29:48;;;;;;;5.83;1.10;;;;;;;16.30;100.00;99091.75;5031866;28;20033;-85
2023/08/31 07:32:14;;;;;;;6.67;1.67;;;;;;;16.50;100.00;99366.88;5022857;28;20125;-92
2023/08/31 07:34:39;;;;;;;4.47;1.63;;;;;;;16.15;100.00;99138.84;5022930;28;20036;-85
2023/08/31 07:37:06;;;;;;;5.97;1.50;;;;;;;16.44;100.00;99300.50;5032701;28;20025;-86
2023/08/31 07:39:32;;;;;;;3.60;1.55;;;;;;;17.00;100.00;99385.28;5006304;28;20047;-86
2023/08/31 07:41:59;;;;;;;3.75;1.00;;;;;;;17.43;100.00;99270.66;5013401;28;20033;-86
2023/08/31 07:44:24;;;;;;;4.18;1.00;;;;;;;17.69;100.00;99234.13;5028928;28;20102;-85
2023/08/31 07:46:49;;;;;;;6.80;1.47;;;;;;;16.88;100.00;98940.56;5023854;28;20129;-86
2023/08/31 07:49:15;;;;;;;1.63;1.13;;;;;;;17.20;100.00;99095.50;5023300;28;20048;-87
2023/08/31 07:51:40;;;;;;;2.20;1.40;;;;;;;17.15;100.00;99030.69;5021024;28;20033;-86
2023/08/31 07:54:05;;;;;;;3.73;2.07;;;;;;;17.05;100.00;99088.81;5013320;28;20108;-86
2023/08/31 07:56:31;;;;;;;4.23;1.40;;;;;;;17.33;100.00;99037.72;5026381;28;20063;-86
2023/08/31 07:58:56;;;;;;;4.43;1.53;;;;;;;17.60;100.00;99211.31;5028460;28;20029;-85
2023/08/31 08:01:22;;;;;;;3.17;1.17;;;;;;;18.38;100.00;99161.91;5011531;28;20037;-86
2023/08/31 08:03:47;;;;;;;3.93;1.30;;;;;;;18.82;100.00;98875.31;5023098;28;20037;-86
2023/08/31 08:06:13;;;;;;;3.87;0.87;;;;;;;18.80;100.00;98847.72;5017533;28;20534;-86
2023/08/31 08:08:39;;;;;;;6.03;1.08;;;;;;;19.06;100.00;99040.66;5013850;28;20036;-87
2023/08/31 08:11:04;;;;;;;4.87;1.40;;;;;;;18.12;100.00;98830.25;5017590;28;20041;-86
2023/08/31 08:13:30;;;;;;;5.85;1.90;;;;;;;17.58;100.00;98775.50;5021453;28;20030;-86
2023/08/31 08:15:55;;;;;;;2.77;1.70;;;;;;;18.18;100.00;98930.22;5024097;28;20055;-85
2023/08/31 08:18:23;;;;;;;2.60;0.97;;;;;;;19.21;100.00;99143.56;5004566;28;20041;-86
2023/08/31 08:20:52;;;;;;;4.30;1.10;;;;;;;19.52;100.00;99108.63;5027379;28;20051;-86
2023/08/31 08:23:18;;;;;;;4.78;1.00;;;;;;;18.80;100.00;98626.88;5014076;28;20022;-85
2023/08/31 08:25:43;;;;;;;5.33;1.43;;;;;;;19.11;100.00;98810.81;5023004;28;20112;-86
2023/08/31 08:28:09;;;;;;;3.63;1.03;;;;;;;19.25;100.00;98616.38;5030674;28;20036;-86
2023/08/31 08:30:34;;;;;;;5.10;1.57;;;;;;;19.32;100.00;98665.59;5028133;28;20063;-86
2023/08/31 08:32:59;;;;;;;4.70;1.70;;;;;;;19.05;100.00;98572.00;5028893;28;20084;-86
2023/08/31 08:35:25;;;;;;;2.53;0.80;;;;;;;18.96;100.00;98698.00;5003914;28;20040;-86
2023/08/31 08:37:50;;;;;;;7.60;0.80;;;;;;;19.87;100.00;98744.38;5025195;28;20033;-86
2023/08/31 08:40:16;;;;;;;3.83;0.93;;;;;;;19.65;100.00;98390.03;5007572;28;20044;-86
2023/08/31 08:42:42;;;;;;;4.23;1.23;;;;;;;19.76;100.00;98567.56;5021166;28;20488;-86
2023/08/31 08:45:12;;;;;;;;;;;;;;;18.76;100.00;98358.16;5028756;28;20029;-86
2023/08/31 08:47:39;;;;;;;5.65;0.90;;;;;;;19.28;100.00;98510.31;4996663;28;19963;-86
2023/08/31 08:50:05;;;;;;;3.00;1.08;;;;;;;19.27;98.98;98358.03;5029428;28;20045;-86
2023/08/31 08:52:31;;;;;;;3.95;1.10;;;;;;;20.11;100.00;98894.41;5025282;28;20037;-86
2023/08/31 08:54:57;;;;;;;2.20;0.65;;;;;;;20.31;98.96;98684.13;5006970;28;20098;-86
2023/08/31 08:57:22;;;;;;;;;;;;;;;20.49;96.73;98577.81;5029070;28;20049;-86
2023/08/31 08:59:48;;;;;;;3.28;1.70;;;;;;;20.63;91.93;98240.00;5022423;28;20128;-86
2023/08/31 09:02:13;;;;;;;2.65;0.73;;;;;;;20.97;90.55;98308.72;5000654;28;20033;-86
2023/08/31 09:04:39;;;;;;;2.27;0.60;;;;;;;20.84;88.00;98093.31;5019859;28;20033;-87
2023/08/31 09:07:04;;;;;;;5.30;1.15;;;;;;;19.57;88.68;97897.03;5028393;28;20034;-86
2023/08/31 09:09:30;;;;;;;1.47;1.10;;;;;;;18.65;91.75;98060.13;5011446;28;20395;-86
2023/08/31 09:11:55;;;;;;;2.63;1.13;;;;;;;19.29;94.05;98518.16;5029666;28;20119;-86
2023/08/31 09:14:21;;;;;;;7.15;1.15;;;;;;;20.18;93.91;98724.28;5021649;28;20045;-86
2023/08/31 09:16:49;;;;;;;3.00;1.00;;;;;;;20.44;89.96;98459.41;5015286;28;20037;-86
2023/08/31 09:19:27;;;;;;;3.33;0.82;;;;;;;20.10;88.48;98250.81;5003276;28;20450;-87
2023/08/31 09:21:56;;;;;;;3.05;0.77;;;;;;;19.17;90.07;98203.91;5011155;28;20492;-86
2023/08/31 09:24:23;;;;;;;3.88;1.20;;;;;;;20.22;90.31;98568.19;5026055;28;20546;-87
2023/08/31 09:26:55;;;;;;;4.22;0.93;;;;;;;20.44;87.44;98331.25;4993082;28;20044;-86
2023/08/31 09:29:21;;;;;;;2.22;1.17;;;;;;;20.03;85.05;98009.34;5016533;28;20500;-86
2023/08/31 09:31:47;;;;;;;2.13;0.60;;;;;;;19.84;84.31;97943.53;5020082;28;20029;-86
2023/08/31 09:34:16;;;;;;;6.70;1.15;;;;;;;19.73;84.80;97997.78;5019723;28;20111;-86
2023/08/31 09:36:42;;;;;;;2.00;0.60;;;;;;;18.97;84.97;97818.25;5028991;28;20029;-86
2023/08/31 09:39:10;;;;;;;2.97;0.80;;;;;;;19.31;87.80;98299.56;5006966;28;20026;-86
2023/08/31 09:41:51;;;;;;;1.42;0.70;;;;;;;19.77;84.31;98115.22;5010994;28;20073;-85
2023/08/31 09:44:19;;;;;;;4.00;1.00;;;;;;;19.49;82.74;97884.13;5017467;28;20079;-85
2023/08/31 09:46:45;;;;;;;2.58;0.55;;;;;;;20.03;82.53;98039.13;5011301;28;20026;-85
2023/08/31 09:49:13;;;;;;;1.73;0.57;;;;;;;19.93;81.36;97912.00;5016358;28;20183;-86
2023/08/31 09:51:41;;;;;;;3.20;0.55;;;;;;;19.90;80.51;97805.09;5019563;28;20044;-89
2023/08/31 09:54:09;;;;;;;4.22;0.73;;;;;;;19.82;79.95;97792.22;5008899;28;20025;-89
2023/08/31 09:56:36;;;;;;;1.60;0.70;;;;;;;19.92;79.56;97793.97;5003730;28;20029;-88
2023/08/31 09:59:02;;;;;;;4.90;0.65;;;;;;;19.50;80.16;97764.00;5006691;28;20091;-87
2023/08/31 10:01:28;;;;;;;1.70;0.60;;;;;;;20.33;78.93;97909.78;5010263;28;20022;-87
2023/08/31 10:03:53;;;;;;;2.07;0.70;;;;;;;19.98;78.83;97825.28;5028003;28;20117;-89
2023/08/31 10:06:21;;;;;;;1.08;0.50;;;;;;;19.50;77.50;97523.22;5009398;28;20674;-92
2023/08/31 10:08:47;;;;;;;1.63;0.63;;;;;;;20.39;80.08;98222.88;5004740;28;20045;-89
2023/08/31 10:11:14;;;;;;;2.42;0.70;;;;;;;20.73;76.76;97902.91;5021225;28;20044;-90
2023/08/31 10:13:41;;;;;;;1.77;0.60;;;;;;;20.36;75.61;97611.16;5010902;28;20041;-90
2023/08/31 10:16:07;;;;;;;1.05;0.70;;;;;;;21.18;76.19;97964.75;4996872;28;20129;-88
2023/08/31 10:18:35;;;;;;;0.68;0.47;;;;;;;21.80;76.75;98216.94;5016314;28;20144;-89
2023/08/31 10:21:03;;;;;;;2.53;0.50;;;;;;;20.35;75.96;97682.72;5025658;28;20068;-89
2023/08/31 10:23:29;;;;;;;3.42;0.90;;;;;;;21.58;74.88;97967.78;5019429;28;20037;-91
2023/08/31 10:25:54;;;;;;;1.35;0.68;;;;;;;21.63;73.57;97824.63;5027817;28;20111;-90
2023/08/31 10:28:22;;;;;;;2.30;0.73;;;;;;;22.81;77.35;98636.94;5011345;28;20040;-90
2023/08/31 10:31:01;;;;;;;0.98;0.73;;;;;;;22.96;74.33;98234.81;5011057;28;20038;-89
2023/08/31 10:33:26;;;;;;;3.40;0.90;;;;;;;21.32;72.38;97489.94;5027388;28;20060;-89
2023/08/31 10:35:54;;;;;;;3.07;0.90;;;;;;;20.86;72.96;97567.81;5008068;28;20041;-90
2023/08/31 10:38:32;;;;;;;1.88;0.90;;;;;;;22.26;75.70;98379.97;5024425;28;20038;-90
2023/08/31 10:41:07;;;;;;;1.90;0.50;;;;;;;21.89;70.75;97588.56;5027905;28;20522;-91
2023/08/31 10:43:58;;;;;;;2.72;0.80;;;;;;;20.50;73.87;97624.69;5013267;28;20124;-87
2023/08/31 10:46:35;;;;;;;2.78;0.70;;;;;;;21.24;75.97;98200.41;5022437;28;20068;-87
2023/08/31 10:49:09;;;;;;;1.70;0.50;;;;;;;21.92;73.44;98046.94;5022785;28;20033;-87
2023/08/31 10:51:36;;;;;;;2.25;0.70;;;;;;;21.98;71.98;97924.59;5028559;28;20029;-87
2023/08/31 10:54:05;;;;;;;3.42;0.80;;;;;;;22.84;68.97;97795.81;5004873;28;20046;-87
2023/08/31 10:56:31;;;;;;;4.30;1.20;;;;;;;21.58;68.92;97424.94;5026791;28;20034;-86
2023/08/31 10:59:00;;;;;;;1.08;0.63;;;;;;;22.05;67.96;97487.63;5005579;28;20038;-86
2023/08/31 11:01:54;;;;;;;3.90;0.98;;;;;;;20.20;67.74;96820.66;5011922;28;20041;-86
2023/08/31 11:04:21;;;;;;;32.65;5.53;;;;;;;20.40;69.97;97289.78;4999064;28;20025;-86
2023/08/31 11:06:47;;;;;;;6.60;1.45;;;;;;;21.54;72.01;98012.94;4988397;28;20041;-86
2023/08/31 11:09:21;;;;;;;1.27;0.40;;;;;;;20.73;70.32;97412.25;5004659;28;20107;-86
2023/08/31 11:11:48;;;;;;;3.00;1.02;;;;;;;19.54;72.59;97428.72;5021086;28;20033;-87
2023/08/31 11:14:14;;;;;;;2.75;1.33;;;;;;;19.29;75.32;97679.66;5032259;28;20022;-87
2023/08/31 11:16:40;;;;;;;4.80;0.93;;;;;;;18.75;78.23;97868.19;5031094;28;20116;-87
2023/08/31 11:19:05;;;;;;;5.45;0.82;;;;;;;18.70;80.04;98059.28;5010229;28;20038;-86